createdAt,value
2022-09-28T00:02:30.602Z,100.00
2022-09-28T00:12:33.803Z,100.00
2022-09-28T00:22:38.362Z,100.00
2022-09-28T00:32:41.327Z,100.00
2022-09-28T00:42:47.083Z,100.00
2022-09-28T00:52:54.391Z,100.00
2022-09-28T01:03:02.293Z,100.00
2022-09-28T01:13:05.637Z,100.00
2022-09-28T01:23:33.899Z,100.00
2022-09-28T01:33:43.511Z,100.00
2022-09-28T01:43:51.041Z,100.00
2022-09-28T01:54:01.607Z,100.00
2022-09-28T02:04:11.428Z,100.00
2022-09-28T02:14:19.771Z,100.00
2022-09-28T02:24:28.863Z,100.00
2022-09-28T02:34:34.385Z,100.00
2022-09-28T02:45:01.334Z,100.00
2022-09-28T02:55:22.246Z,100.00
2022-09-28T03:05:33.952Z,100.00
2022-09-28T03:15:38.646Z,100.00
2022-09-28T03:25:41.683Z,100.00
2022-09-28T03:35:50.350Z,100.00
2022-09-28T03:45:55.299Z,100.00
2022-09-28T03:56:05.087Z,100.00
2022-09-28T04:06:08.888Z,100.00
2022-09-28T04:16:13.465Z,100.00
2022-09-28T04:26:23.050Z,100.00
2022-09-28T04:36:27.174Z,100.00
2022-09-28T04:46:30.312Z,100.00
2022-09-28T04:56:55.484Z,100.00
2022-09-28T05:06:58.727Z,100.00
2022-09-28T05:17:03.150Z,100.00
2022-09-28T05:27:44.249Z,100.00
2022-09-28T05:38:07.037Z,100.00
2022-09-28T05:48:10.165Z,100.00
2022-09-28T05:58:15.033Z,100.00
2022-09-28T06:08:18.075Z,100.00
2022-09-28T06:18:26.410Z,100.00
2022-09-28T06:28:49.894Z,100.00
2022-09-28T06:38:54.709Z,100.00
2022-09-28T06:48:59.208Z,100.00
2022-09-28T06:59:22.370Z,100.00
2022-09-28T07:09:33.148Z,100.00
2022-09-28T07:19:52.752Z,100.00
2022-09-28T07:29:56.191Z,100.00
2022-09-28T07:40:29.838Z,100.00
2022-09-28T07:50:33.654Z,100.00
2022-09-28T08:00:50.464Z,100.00
2022-09-28T08:21:42.709Z,100.00
2022-09-28T08:31:48.930Z,100.00
2022-09-28T08:42:31.020Z,100.00
2022-09-28T08:52:55.081Z,100.00
2022-09-28T09:03:11.705Z,100.00
2022-09-28T09:13:39.691Z,100.00
2022-09-28T09:23:56.128Z,100.00
2022-09-28T09:34:14.171Z,100.00
2022-09-28T09:44:52.399Z,100.00
2022-09-28T09:55:21.247Z,100.00
2022-09-28T10:05:33.613Z,100.00
2022-09-28T10:15:37.629Z,100.00
2022-09-28T10:26:01.765Z,97.58
2022-09-28T10:36:08.568Z,98.90
2022-09-28T10:46:16.131Z,98.05
2022-09-28T10:56:28.258Z,95.65
2022-09-28T11:06:43.061Z,94.45
2022-09-28T11:16:48.187Z,92.27
2022-09-28T11:26:56.580Z,90.02
2022-09-28T11:37:33.394Z,88.96
2022-09-28T11:47:49.028Z,92.47
2022-09-28T11:58:01.588Z,87.38
2022-09-28T12:08:14.926Z,88.47
2022-09-28T12:18:50.287Z,87.44
2022-09-28T12:28:59.466Z,84.78
2022-09-28T12:39:21.846Z,86.17
2022-09-28T12:50:37.095Z,89.00
2022-09-28T13:00:22.439Z,88.31
2022-09-28T13:10:34.983Z,92.13
2022-09-28T13:21:04.935Z,94.15
2022-09-28T13:31:12.429Z,96.03
2022-09-28T13:41:23.527Z,98.10
2022-09-28T13:51:44.104Z,97.00
2022-09-28T14:01:56.047Z,97.06
2022-09-28T14:12:02.466Z,97.30
2022-09-28T14:22:19.318Z,98.23
2022-09-28T14:32:26.501Z,97.16
2022-09-28T14:42:29.661Z,94.90
2022-09-28T14:52:46.295Z,84.28
2022-09-28T15:02:52.825Z,83.42
2022-09-28T15:12:57.668Z,80.09
2022-09-28T15:23:00.940Z,82.16
2022-09-28T15:33:29.105Z,80.03
2022-09-28T15:43:38.106Z,81.32
2022-09-28T15:53:58.462Z,83.14
2022-09-28T16:04:02.081Z,85.09
2022-09-28T16:14:09.024Z,82.92
2022-09-28T16:24:21.862Z,83.46
2022-09-28T16:34:28.759Z,83.87
2022-09-28T16:44:33.204Z,84.46
2022-09-28T16:54:55.239Z,87.14
2022-09-28T17:04:58.940Z,88.06
2022-09-28T17:15:03.349Z,89.58
2022-09-28T17:25:10.135Z,91.20
2022-09-28T17:35:24.545Z,92.10
2022-09-28T17:45:31.308Z,94.71
2022-09-28T17:55:37.375Z,95.80
2022-09-28T18:05:40.792Z,97.64
2022-09-28T18:15:45.345Z,99.14
2022-09-28T18:25:49.425Z,100.00
2022-09-28T18:35:55.468Z,100.00
2022-09-28T18:45:58.691Z,100.00
2022-09-28T18:56:08.427Z,100.00
2022-09-28T19:06:13.299Z,100.00
2022-09-28T19:16:20.812Z,100.00
2022-09-28T19:26:26.279Z,100.00
2022-09-28T19:36:31.234Z,100.00
2022-09-28T19:46:35.195Z,100.00
2022-09-28T19:56:39.653Z,100.00
2022-09-28T20:06:42.956Z,100.00
2022-09-28T20:16:47.565Z,100.00
2022-09-28T20:26:50.750Z,100.00
2022-09-28T20:36:55.259Z,100.00
2022-09-28T20:46:58.304Z,100.00
2022-09-28T20:57:03.000Z,100.00
2022-09-28T21:07:05.937Z,100.00
2022-09-28T21:17:11.581Z,100.00
2022-09-28T21:27:14.603Z,100.00
2022-09-28T21:37:19.084Z,100.00
2022-09-28T21:47:22.141Z,100.00
2022-09-28T21:57:26.449Z,100.00
2022-09-28T22:07:29.444Z,100.00
2022-09-28T22:17:33.908Z,100.00
2022-09-28T22:27:36.841Z,100.00
2022-09-28T22:37:42.368Z,100.00
2022-09-28T22:47:45.403Z,100.00
2022-09-28T22:57:49.651Z,100.00
2022-09-28T23:07:52.563Z,100.00
2022-09-28T23:17:56.919Z,100.00
2022-09-28T23:27:59.833Z,100.00
2022-09-28T23:38:04.315Z,100.00
2022-09-28T23:48:07.400Z,100.00
2022-09-28T23:58:12.329Z,100.00
